Disclaimer

Please do not use the information listed here in-flight or in-navigation, as they are not provided to us by the airports but are provided by volunteers, so they might be outdated.

Search


Regions


Airport information page

Radio informations:
DJERBA TWR - 118.15 MHz
DJERBA APP - 120.3 MHz

Airport informations:
Latitude: 33° 52' 30.11" N
Longitude: 010° 46' 31.66" E
Elevation: 19 feet - 6 meters
Operating hours: N/A
Operating agency: Civil government, landing fees and diplomatic clearance may be required
Timezone: UTC+1(+2DT)
Fuel: Jet A1, without icing nhibitor.

Runway information:
09/27 - 10171 x 148 feet< - >3100 x 45 meters

Recent METARs:
DTTJ 131930Z 09004KT 9999 FEW020 SCT026 21/17 Q1025 NOSIG
DTTJ 132000Z 10003KT 9999 FEW020 SCT026 20/17 Q1025 NOSIG
DTTJ 132030Z 00000KT 9999 FEW020 SCT026 19/17 Q1025 NOSIG

Airport on the map: